CFB Gagetown, New Brunswick

Past 24 Hour Conditions

This table is a summary of hourly weather conditions for the past 24 hours. This summary includes the following parameters: temperature, humidity, dew point, wind speed and direction, air pressure, visibility and/or wind chill and humidex.
Date / Time
(ADT)
Conditions Temp (°F) Humidity (%) Dew Point (°F) Wind (mph) Pressure (inches) Visibility (miles)
23 April 2014
21:00 Light Rain 44 92 42 N 7 29.4 0.5
20:00 Light Rain 48 93 46 NW 5 29.4 0.4
19:00 Light Rain 49 93 47 NW 3 29.4 0.5
18:00 Light Drizzle 50 92 47 calm 29.4 1
17:00 Light Drizzle 51   86 47 WSW 3 29.4 9
16:00 Light Drizzle 51   86 47 S 7 29.4 9
15:00 Cloudy 51   85 47 S 6 29.4 9
14:00 Cloudy 51   87 47 ESE 6 29.4 9
13:00 Cloudy 51   87 47 SE 8 29.4 9
12:00 Cloudy 49 89 46 SE 7 29.4 9
11:00 Light Rain 50 86 46 SSE 9 29.4 6
10:00 Light Rain 49 86 45 ESE 7 29.4 9
9:00 Cloudy 47 88 44 ESE 9 29.5 9
8:00 Light Rainshower 44 88 41 E 7 29.5 9
7:00 Cloudy 44 86 40 E 2 29.5 12
6:00 Cloudy 43 87 39 E 6 29.5 8
5:00 Cloudy 42   88 39 E 7 29.5 8
4:00 Cloudy 43 87 40 E 6 29.5 15
3:00 Cloudy 43 87 40 E 7 29.5 15
2:00 Cloudy 43 87 40 ENE 2 29.6 15
1:00 Cloudy 45 84 41 E 5 29.6 15
00:00 Cloudy 47 80 41 SE 3 29.6 15
22 April 2014
23:00 Mostly Cloudy 45 82 40 E 3 29.6 15
22:00 Cloudy 45 82 40 E 3 29.6 15
21:00 Cloudy 48 75 41 E 3 29.6 15
N/A
Not available
 ↑ 
Highest temperature
 ↓ 
Lowest temperature

If you require additional historical weather information, please visit Climate Data Online.